Time;durP1;ratioP1;P1;durP2;ratioP2;P2;SDS_P1;SDS_P2;PMS_P1;PMS_P2;Temp;Humidity;BMP_temperature;BMP_pressure;BME280_temperature;BME280_humidity;BME280_pressure;Samples;Min_cycle;Max_cycle;Signal;HPM_P1;HPM_P2
2022/03/20 00:00:31;;;;;;;4.47;1.70;;;;;;;;;;5039560;28;20033;-89
2022/03/20 00:02:57;;;;;;;2.85;1.77;;;;;;;;;;5032378;28;20513;-89
2022/03/20 00:05:23;;;;;;;1.55;0.95;;;;;;;;;;5023443;28;20101;-89
2022/03/20 00:07:49;;;;;;;1.80;0.93;;;;;;;;;;5026287;28;20049;-89
2022/03/20 00:10:31;;;;;;;2.50;0.95;;;;;;;;;;5058794;28;20049;-89
2022/03/20 00:12:57;;;;;;;4.38;1.05;;;;;;;;;;5030675;28;20079;-89
2022/03/20 00:15:23;;;;;;;0.88;0.82;;;;;;;;;;5033330;28;20048;-89
2022/03/20 00:17:49;;;;;;;1.65;0.88;;;;;;;;;;5018675;28;20561;-89
2022/03/20 00:20:16;;;;;;;0.60;0.60;;;;;;;;;;5026402;28;20487;-89
2022/03/20 00:22:42;;;;;;;1.63;1.27;;;;;;;;;;5020675;28;20045;-89
2022/03/20 00:25:08;;;;;;;1.48;1.15;;;;;;;;;;5062591;28;20494;-89
2022/03/20 00:27:34;;;;;;;2.38;1.42;;;;;;;;;;5027421;28;20062;-89
2022/03/20 00:30:02;;;;;;;0.63;0.63;;;;;;;;;;5069807;28;20077;-88
2022/03/20 00:32:28;;;;;;;2.60;1.17;;;;;;;;;;5029499;28;20510;-90
2022/03/20 00:34:59;;;;;;;3.03;1.60;;;;;;;;;;5060187;28;20048;-89
2022/03/20 00:37:25;;;;;;;1.52;0.90;;;;;;;;;;5014341;28;20032;-90
2022/03/20 00:39:51;;;;;;;3.53;1.58;;;;;;;;;;5029046;28;20041;-90
2022/03/20 00:42:17;;;;;;;0.30;0.30;;;;;;;;;;5018984;28;20041;-89
2022/03/20 00:44:43;;;;;;;1.98;1.85;;;;;;;;;;5031583;28;20108;-89
2022/03/20 00:47:09;;;;;;;0.50;0.50;;;;;;;;;;5064217;28;20072;-89
2022/03/20 00:49:48;;;;;;;1.13;0.75;;;;;;;;;;5028683;28;20413;-89
2022/03/20 00:52:14;;;;;;;4.90;2.25;;;;;;;;;;5029265;28;20087;-90
2022/03/20 00:54:40;;;;;;;2.10;0.80;;;;;;;;;;5036753;28;21531;-90
2022/03/20 00:57:07;;;;;;;3.10;1.30;;;;;;;;;;5055513;28;20083;-89
2022/03/20 00:59:33;;;;;;;0.98;0.85;;;;;;;;;;5029388;28;20038;-89
2022/03/20 01:01:59;;;;;;;0.82;0.73;;;;;;;;;;5055180;28;20048;-88
2022/03/20 01:04:31;;;;;;;1.65;1.10;;;;;;;;;;5058921;28;20075;-88
2022/03/20 01:07:00;;;;;;;2.90;1.88;;;;;;;;;;5025886;28;20040;-89
2022/03/20 01:09:26;;;;;;;3.25;1.90;;;;;;;;;;5026827;28;20087;-88
2022/03/20 01:11:53;;;;;;;1.00;0.90;;;;;;;;;;5036490;28;20502;-89
2022/03/20 01:14:19;;;;;;;6.60;1.67;;;;;;;;;;5026008;28;20073;-88
2022/03/20 01:16:46;;;;;;;1.38;0.85;;;;;;;;;;5028523;28;20037;-88
2022/03/20 01:19:12;;;;;;;0.80;0.80;;;;;;;;;;5030198;28;20067;-89
2022/03/20 01:21:38;;;;;;;3.90;2.30;;;;;;;;;;5028131;28;20041;-87
2022/03/20 01:24:04;;;;;;;0.30;0.30;;;;;;;;;;5011234;28;20076;-88
2022/03/20 01:26:30;;;;;;;0.88;0.60;;;;;;;;;;5005944;28;20402;-87
2022/03/20 01:28:56;;;;;;;2.65;0.85;;;;;;;;;;5024287;28;20091;-89
2022/03/20 01:31:22;;;;;;;1.85;0.98;;;;;;;;;;5024825;28;20049;-88
2022/03/20 01:33:48;;;;;;;1.55;1.05;;;;;;;;;;5011487;28;20064;-88
2022/03/20 01:36:15;;;;;;;17.27;1.13;;;;;;;;;;5011133;28;20493;-89
2022/03/20 01:38:41;;;;;;;1.00;0.60;;;;;;;;;;5024443;28;20047;-87
2022/03/20 01:41:09;;;;;;;1.83;0.93;;;;;;;;;;5004437;28;20175;-88
2022/03/20 01:43:35;;;;;;;5.47;1.88;;;;;;;;;;4997950;28;20045;-88
2022/03/20 01:46:02;;;;;;;2.17;1.00;;;;;;;;;;5027832;28;20037;-89
2022/03/20 01:48:28;;;;;;;3.75;1.70;;;;;;;;;;5004963;28;20041;-88
2022/03/20 01:50:59;;;;;;;0.93;0.63;;;;;;;;;;5026542;28;20086;-88
2022/03/20 01:53:27;;;;;;;2.03;1.17;;;;;;;;;;5017848;28;20041;-88
2022/03/20 01:55:53;;;;;;;5.78;2.08;;;;;;;;;;5011185;28;20042;-88
2022/03/20 01:58:20;;;;;;;6.00;2.10;;;;;;;;;;5011446;28;20044;-88
2022/03/20 02:00:46;;;;;;;1.23;0.75;;;;;;;;;;5016107;28;20519;-87
2022/03/20 02:03:12;;;;;;;4.18;1.67;;;;;;;;;;5017094;28;20116;-89
2022/03/20 02:05:38;;;;;;;1.98;1.05;;;;;;;;;;5017054;28;20486;-88
2022/03/20 02:08:04;;;;;;;1.73;0.95;;;;;;;;;;5012891;28;20136;-88
2022/03/20 02:10:35;;;;;;;1.52;1.10;;;;;;;;;;5025949;28;20501;-88
2022/03/20 02:13:01;;;;;;;4.70;2.47;;;;;;;;;;5013215;28;20040;-89
2022/03/20 02:15:28;;;;;;;3.90;1.67;;;;;;;;;;5011483;28;20044;-89
2022/03/20 02:17:57;;;;;;;1.83;1.20;;;;;;;;;;5014893;28;20041;-89
2022/03/20 02:20:23;;;;;;;1.42;0.75;;;;;;;;;;5022194;28;20083;-89
2022/03/20 02:22:52;;;;;;;5.68;2.92;;;;;;;;;;5017648;28;20088;-89
2022/03/20 02:25:18;;;;;;;1.63;1.25;;;;;;;;;;5052543;28;20046;-87
2022/03/20 02:27:45;;;;;;;1.48;1.20;;;;;;;;;;5054717;28;20037;-89
2022/03/20 02:30:12;;;;;;;4.80;2.58;;;;;;;;;;5070300;28;20441;-88
2022/03/20 02:32:39;;;;;;;2.25;0.95;;;;;;;;;;5060236;28;20042;-89
2022/03/20 02:35:22;;;;;;;2.58;1.42;;;;;;;;;;5032939;28;20486;-90
2022/03/20 02:37:53;;;;;;;3.08;1.48;;;;;;;;;;5030994;28;20056;-88
2022/03/20 02:40:21;;;;;;;5.78;1.40;;;;;;;;;;5064545;28;20199;-89
2022/03/20 02:42:48;;;;;;;6.13;2.42;;;;;;;;;;5058029;28;20037;-88
2022/03/20 02:45:20;;;;;;;2.78;1.63;;;;;;;;;;5024393;28;20041;-89
2022/03/20 02:47:47;;;;;;;2.70;1.70;;;;;;;;;;5030778;28;20053;-89
2022/03/20 02:50:17;;;;;;;7.68;2.65;;;;;;;;;;5053678;28;20075;-89
2022/03/20 02:52:43;;;;;;;1.50;0.95;;;;;;;;;;5064808;28;20490;-89
2022/03/20 02:55:09;;;;;;;1.15;1.05;;;;;;;;;;5044640;28;20072;-88
2022/03/20 02:57:35;;;;;;;4.00;2.25;;;;;;;;;;5050245;28;20061;-88
2022/03/20 03:00:05;;;;;;;3.13;1.50;;;;;;;;;;5051275;28;20045;-89
2022/03/20 03:02:36;;;;;;;2.08;1.73;;;;;;;;;;5071805;28;20033;-89
2022/03/20 03:05:02;;;;;;;2.30;1.30;;;;;;;;;;5063684;28;20617;-89
2022/03/20 03:07:29;;;;;;;1.15;1.05;;;;;;;;;;5029376;28;20041;-89
2022/03/20 03:12:39;;;;;;;1.13;0.95;;;;;;;;;;5046920;28;20099;-89
2022/03/20 03:15:21;;;;;;;4.80;3.17;;;;;;;;;;5062740;28;20045;-89
2022/03/20 03:17:48;;;;;;;4.38;1.90;;;;;;;;;;5028356;28;20073;-88
2022/03/20 03:20:14;;;;;;;2.72;1.85;;;;;;;;;;5023096;28;20513;-89
2022/03/20 03:22:40;;;;;;;7.32;4.63;;;;;;;;;;5032091;28;20033;-88
2022/03/20 03:25:07;;;;;;;1.17;0.85;;;;;;;;;;5030543;28;20045;-89
2022/03/20 03:27:33;;;;;;;9.40;1.17;;;;;;;;;;5060954;28;20046;-88
2022/03/20 03:29:59;;;;;;;3.65;2.40;;;;;;;;;;5028423;28;20083;-89
2022/03/20 03:32:25;;;;;;;3.13;1.58;;;;;;;;;;5037990;28;20041;-89
2022/03/20 03:37:37;;;;;;;10.20;1.35;;;;;;;;;;5044888;28;20037;-89
2022/03/20 03:40:04;;;;;;;4.20;2.47;;;;;;;;;;5033271;28;20056;-89
2022/03/20 03:42:53;;;;;;;3.33;2.50;;;;;;;;;;5029840;28;20060;-89
2022/03/20 03:45:21;;;;;;;0.93;0.88;;;;;;;;;;5050309;28;20041;-88
2022/03/20 03:47:47;;;;;;;8.48;3.35;;;;;;;;;;5046501;28;20050;-89
2022/03/20 03:50:13;;;;;;;2.85;1.75;;;;;;;;;;5036087;28;20087;-88
2022/03/20 03:52:40;;;;;;;6.80;3.28;;;;;;;;;;5028791;28;20047;-89
2022/03/20 03:55:06;;;;;;;3.42;1.80;;;;;;;;;;5028834;28;20041;-89
2022/03/20 03:57:32;;;;;;;4.05;2.28;;;;;;;;;;5055855;28;20037;-89
2022/03/20 03:59:58;;;;;;;6.00;2.17;;;;;;;;;;5016316;28;20041;-89
2022/03/20 04:02:25;;;;;;;2.28;1.45;;;;;;;;;;5029182;28;20037;-90
2022/03/20 04:04:51;;;;;;;4.60;2.60;;;;;;;;;;5028047;28;20379;-89
2022/03/20 04:07:18;;;;;;;5.18;3.20;;;;;;;;;;5022378;28;20137;-89
2022/03/20 04:09:45;;;;;;;2.65;1.65;;;;;;;;;;5033740;28;20136;-88
2022/03/20 04:12:13;;;;;;;2.55;1.65;;;;;;;;;;5035155;28;20069;-89
2022/03/20 04:14:39;;;;;;;3.67;1.42;;;;;;;;;;5033323;28;20041;-89
2022/03/20 04:17:06;;;;;;;4.75;2.83;;;;;;;;;;5029264;28;20037;-88
2022/03/20 04:19:32;;;;;;;22.63;1.83;;;;;;;;;;5011245;28;20033;-88
2022/03/20 04:21:59;;;;;;;2.32;1.96;;;;;;;;;;4986529;28;1106006;-89
2022/03/20 04:24:25;;;;;;;5.00;2.80;;;;;;;;;;5063051;28;20057;-88
2022/03/20 04:26:55;;;;;;;8.93;4.53;;;;;;;;;;5051156;28;20041;-88
2022/03/20 04:29:21;;;;;;;4.18;2.10;;;;;;;;;;5034701;28;20048;-88
2022/03/20 04:31:48;;;;;;;7.68;3.67;;;;;;;;;;5023300;28;20037;-88
2022/03/20 04:34:14;;;;;;;4.25;1.17;;;;;;;;;;5039076;28;20044;-89
2022/03/20 04:36:41;;;;;;;6.28;2.88;;;;;;;;;;5026202;28;20036;-88
2022/03/20 04:39:07;;;;;;;2.92;2.00;;;;;;;;;;5032471;28;20032;-88
2022/03/20 04:41:33;;;;;;;4.55;1.25;;;;;;;;;;5030375;28;20080;-88
2022/03/20 04:43:59;;;;;;;6.95;3.63;;;;;;;;;;5038605;28;20037;-88
2022/03/20 04:46:25;;;;;;;6.68;3.03;;;;;;;;;;5024240;28;20045;-89
2022/03/20 04:59:58;;;;;;;3.00;1.85;;;;;;;;;;5037324;28;20041;-88
2022/03/20 05:02:24;;;;;;;2.53;1.80;;;;;;;;;;5027628;28;20072;-89
2022/03/20 05:04:52;;;;;;;4.70;1.95;;;;;;;;;;5039778;28;20037;-88
2022/03/20 05:07:21;;;;;;;6.57;2.97;;;;;;;;;;5044282;28;20041;-89
2022/03/20 05:15:17;;;;;;;6.43;3.53;;;;;;;;;;5037600;28;20513;-88
2022/03/20 05:17:44;;;;;;;5.80;2.97;;;;;;;;;;5065161;28;20128;-88
2022/03/20 05:20:13;;;;;;;4.13;3.13;;;;;;;;;;5029500;28;20060;-88
2022/03/20 05:22:39;;;;;;;3.53;2.35;;;;;;;;;;5039126;28;20041;-88
2022/03/20 05:25:06;;;;;;;4.53;2.20;;;;;;;;;;5030095;28;20052;-88
2022/03/20 05:27:32;;;;;;;7.93;4.05;;;;;;;;;;5027878;28;20042;-87
2022/03/20 05:29:58;;;;;;;5.43;3.45;;;;;;;;;;5031518;28;20127;-87
2022/03/20 05:32:24;;;;;;;6.55;3.45;;;;;;;;;;5037274;28;20080;-87
2022/03/20 05:34:50;;;;;;;5.57;3.30;;;;;;;;;;5054195;28;20072;-88
2022/03/20 05:37:16;;;;;;;5.82;3.50;;;;;;;;;;5028381;28;20079;-88
2022/03/20 05:39:45;;;;;;;4.10;2.90;;;;;;;;;;5028921;28;20037;-87
2022/03/20 05:42:13;;;;;;;5.43;2.78;;;;;;;;;;5071799;28;20040;-89
2022/03/20 05:44:40;;;;;;;7.00;3.55;;;;;;;;;;5018911;28;20048;-88
2022/03/20 05:47:07;;;;;;;8.38;3.85;;;;;;;;;;5031881;28;20049;-89
2022/03/20 05:49:35;;;;;;;6.78;3.03;;;;;;;;;;5031407;28;20125;-89
2022/03/20 05:52:01;;;;;;;7.28;3.40;;;;;;;;;;5025160;28;20118;-88
2022/03/20 05:54:27;;;;;;;16.40;5.57;;;;;;;;;;5062823;28;20049;-89
2022/03/20 05:59:39;;;;;;;9.23;4.40;;;;;;;;;;5038804;28;20053;-88
2022/03/20 06:02:08;;;;;;;7.25;3.72;;;;;;;;;;5029790;28;20037;-89
2022/03/20 06:04:34;;;;;;;9.05;4.70;;;;;;;;;;5028821;28;20041;-89
2022/03/20 06:07:34;;;;;;;13.40;6.30;;;;;;;;;;5032734;28;20045;-90
2022/03/20 06:10:00;;;;;;;9.18;4.57;;;;;;;;;;5035264;28;20045;-89
2022/03/20 06:12:26;;;;;;;13.63;4.25;;;;;;;;;;5035318;28;20047;-90
2022/03/20 06:14:52;;;;;;;8.02;4.43;;;;;;;;;;5032954;28;20076;-89
2022/03/20 06:17:18;;;;;;;6.75;2.92;;;;;;;;;;5028329;28;20547;-89
2022/03/20 06:19:46;;;;;;;3.53;2.65;;;;;;;;;;5028084;28;20072;-89
2022/03/20 06:22:13;;;;;;;6.72;3.22;;;;;;;;;;5044890;28;20119;-89
2022/03/20 06:24:39;;;;;;;9.43;4.22;;;;;;;;;;5045951;28;20095;-88
2022/03/20 06:27:05;;;;;;;6.75;3.05;;;;;;;;;;5026864;28;20049;-89
2022/03/20 06:29:31;;;;;;;10.73;6.43;;;;;;;;;;5022574;28;20045;-88
2022/03/20 06:31:57;;;;;;;3.30;2.13;;;;;;;;;;5021603;28;20049;-89
2022/03/20 06:34:23;;;;;;;9.35;4.35;;;;;;;;;;5028167;28;20049;-88
2022/03/20 06:36:49;;;;;;;8.82;4.53;;;;;;;;;;5028837;28;20041;-89
2022/03/20 06:39:15;;;;;;;6.78;4.05;;;;;;;;;;5034944;28;20037;-89
2022/03/20 06:41:41;;;;;;;6.78;3.45;;;;;;;;;;5054721;28;20046;-89
2022/03/20 06:44:10;;;;;;;14.50;6.25;;;;;;;;;;5055506;28;20042;-87
2022/03/20 06:46:39;;;;;;;9.25;4.90;;;;;;;;;;5022261;28;20399;-88
2022/03/20 06:49:08;;;;;;;5.60;3.28;;;;;;;;;;5028260;28;20037;-88
2022/03/20 06:51:34;;;;;;;5.07;2.35;;;;;;;;;;5054660;28;20387;-90
2022/03/20 06:54:00;;;;;;;1.63;1.30;;;;;;;;;;5028198;28;20064;-89
2022/03/20 06:56:28;;;;;;;2.13;1.42;;;;;;;;;;5068168;28;20042;-89
2022/03/20 06:58:55;;;;;;;10.70;5.22;;;;;;;;;;5062855;28;20037;-88
2022/03/20 07:01:21;;;;;;;2.13;1.60;;;;;;;;;;5070052;28;20033;-89
2022/03/20 07:03:47;;;;;;;12.50;6.72;;;;;;;;;;5037519;28;20033;-89
2022/03/20 07:06:15;;;;;;;7.35;3.38;;;;;;;;;;5031185;28;20048;-87
2022/03/20 07:08:42;;;;;;;8.35;3.30;;;;;;;;;;5026205;28;20100;-88
2022/03/20 07:11:09;;;;;;;12.68;5.22;;;;;;;;;;5053098;28;20124;-88
2022/03/20 07:13:49;;;;;;;8.00;4.18;;;;;;;;;;5033357;28;20470;-89
2022/03/20 07:16:16;;;;;;;5.47;3.33;;;;;;;;;;5028837;28;20044;-88
2022/03/20 07:18:43;;;;;;;14.88;5.32;;;;;;;;;;5043429;28;20052;-89
2022/03/20 07:21:09;;;;;;;10.18;4.82;;;;;;;;;;5031286;28;20033;-89
2022/03/20 07:23:37;;;;;;;7.70;4.28;;;;;;;;;;5044543;28;20044;-89
2022/03/20 07:31:36;;;;;;;18.48;7.40;;;;;;;;;;5053318;28;20045;-88
2022/03/20 07:34:02;;;;;;;9.73;5.57;;;;;;;;;;5032459;28;20057;-88
2022/03/20 07:36:29;;;;;;;8.68;4.50;;;;;;;;;;5050269;28;20460;-89
2022/03/20 07:38:55;;;;;;;8.05;4.43;;;;;;;;;;5032207;28;20095;-89
2022/03/20 07:41:21;;;;;;;4.00;2.33;;;;;;;;;;5061306;28;20037;-88
2022/03/20 07:43:48;;;;;;;2.95;2.05;;;;;;;;;;5041911;28;20042;-88
2022/03/20 07:46:14;;;;;;;14.75;6.78;;;;;;;;;;5027651;28;20037;-89
2022/03/20 07:48:41;;;;;;;7.22;3.95;;;;;;;;;;5037254;28;20045;-89
2022/03/20 07:51:07;;;;;;;10.38;4.35;;;;;;;;;;5030602;28;20049;-88
2022/03/20 07:53:36;;;;;;;7.90;4.53;;;;;;;;;;5033958;28;20037;-88
2022/03/20 07:56:02;;;;;;;14.15;5.47;;;;;;;;;;5024639;28;20550;-89
2022/03/20 07:58:28;;;;;;;5.55;3.15;;;;;;;;;;5033580;28;20037;-89
2022/03/20 08:00:54;;;;;;;9.35;5.30;;;;;;;;;;5034798;28;20045;-89
2022/03/20 08:03:20;;;;;;;11.32;6.00;;;;;;;;;;5034551;28;20037;-89
2022/03/20 08:05:46;;;;;;;9.43;5.00;;;;;;;;;;5025855;28;20041;-89
2022/03/20 08:08:16;;;;;;;6.75;4.20;;;;;;;;;;5066712;28;20059;-89
2022/03/20 08:10:42;;;;;;;12.05;5.30;;;;;;;;;;5027934;28;20048;-89
2022/03/20 08:13:10;;;;;;;5.60;3.70;;;;;;;;;;5034286;28;20045;-88
2022/03/20 08:15:36;;;;;;;13.63;6.25;;;;;;;;;;5028193;28;20045;-89
2022/03/20 08:18:06;;;;;;;7.95;4.72;;;;;;;;;;5031887;28;20049;-89
2022/03/20 08:20:32;;;;;;;14.85;6.50;;;;;;;;;;5064437;28;20096;-89
2022/03/20 08:22:59;;;;;;;10.65;5.55;;;;;;;;;;5031810;28;20033;-89
2022/03/20 08:25:26;;;;;;;13.57;5.68;;;;;;;;;;5054965;28;20095;-88
2022/03/20 08:27:53;;;;;;;17.23;8.05;;;;;;;;;;5015150;28;20046;-90
2022/03/20 08:30:20;;;;;;;9.60;5.57;;;;;;;;;;5037489;28;20040;-89
2022/03/20 08:32:49;;;;;;;10.95;6.10;;;;;;;;;;5035612;28;20105;-89
2022/03/20 08:35:17;;;;;;;10.00;5.38;;;;;;;;;;5024192;28;20133;-89
2022/03/20 08:37:44;;;;;;;6.25;3.85;;;;;;;;;;5032312;28;20048;-89
2022/03/20 08:40:20;;;;;;;12.23;5.60;;;;;;;;;;5034325;28;20044;-89
2022/03/20 08:42:47;;;;;;;17.67;6.90;;;;;;;;;;5030180;28;20042;-88
2022/03/20 08:45:14;;;;;;;22.40;8.27;;;;;;;;;;5023726;28;20058;-89
2022/03/20 08:47:41;;;;;;;9.93;4.43;;;;;;;;;;5055443;28;20049;-88
2022/03/20 08:50:07;;;;;;;10.15;5.95;;;;;;;;;;5049999;28;20046;-89
2022/03/20 08:52:33;;;;;;;11.98;5.70;;;;;;;;;;5030195;28;20477;-89
2022/03/20 08:55:01;;;;;;;13.10;4.88;;;;;;;;;;5050433;28;20409;-88
2022/03/20 08:57:28;;;;;;;14.15;7.85;;;;;;;;;;5012034;28;20410;-89
2022/03/20 08:59:54;;;;;;;7.85;4.22;;;;;;;;;;5051930;28;20045;-89
2022/03/20 09:02:20;;;;;;;15.85;7.55;;;;;;;;;;5053542;28;20052;-88
2022/03/20 09:04:46;;;;;;;15.77;9.25;;;;;;;;;;5064862;28;20124;-89
2022/03/20 09:07:12;;;;;;;9.63;5.63;;;;;;;;;;5028451;28;20092;-90
2022/03/20 09:09:38;;;;;;;20.40;8.65;;;;;;;;;;5033012;28;20072;-89
2022/03/20 09:12:05;;;;;;;18.15;8.90;;;;;;;;;;5051529;28;20041;-87
2022/03/20 09:14:32;;;;;;;9.73;5.60;;;;;;;;;;5019952;28;20048;-89
2022/03/20 09:19:43;;;;;;;18.08;7.28;;;;;;;;;;5038823;28;20041;-90
2022/03/20 09:22:12;;;;;;;13.30;6.80;;;;;;;;;;5052905;28;20057;-89
2022/03/20 09:24:38;;;;;;;25.48;9.75;;;;;;;;;;5050508;28;20052;-90
2022/03/20 09:27:04;;;;;;;12.63;7.82;;;;;;;;;;5065819;28;20061;-91
2022/03/20 09:29:30;;;;;;;17.77;9.20;;;;;;;;;;5031543;28;20042;-91
2022/03/20 09:31:56;;;;;;;18.33;8.27;;;;;;;;;;5064987;28;20044;-89
2022/03/20 09:34:23;;;;;;;19.13;8.90;;;;;;;;;;5022792;28;20220;-90
2022/03/20 09:36:49;;;;;;;16.25;7.57;;;;;;;;;;5030222;28;20041;-90
2022/03/20 09:39:35;;;;;;;12.77;6.13;;;;;;;;;;5022889;28;20041;-90
2022/03/20 09:42:02;;;;;;;17.17;8.40;;;;;;;;;;5056883;28;20134;-89
2022/03/20 09:44:29;;;;;;;36.72;10.80;;;;;;;;;;5044036;28;20490;-88
2022/03/20 09:46:56;;;;;;;8.38;4.72;;;;;;;;;;5046615;28;20049;-88
2022/03/20 09:49:25;;;;;;;13.35;6.70;;;;;;;;;;5035506;28;20479;-88
2022/03/20 09:51:51;;;;;;;14.60;6.82;;;;;;;;;;5028725;28;20083;-89
2022/03/20 09:54:18;;;;;;;8.27;4.95;;;;;;;;;;5027883;28;20041;-89
2022/03/20 09:56:44;;;;;;;17.70;9.48;;;;;;;;;;5023588;28;20034;-88
2022/03/20 09:59:11;;;;;;;8.30;4.28;;;;;;;;;;5031559;28;20040;-88
2022/03/20 10:01:37;;;;;;;8.52;3.90;;;;;;;;;;5038048;28;20045;-89
2022/03/20 10:04:11;;;;;;;17.20;8.18;;;;;;;;;;5038488;28;20562;-89
2022/03/20 10:06:38;;;;;;;11.60;5.53;;;;;;;;;;5023368;28;20479;-88
2022/03/20 10:09:05;;;;;;;16.35;8.68;;;;;;;;;;5021248;28;20715;-89
2022/03/20 10:11:35;;;;;;;9.05;4.32;;;;;;;;;;5060214;28;20063;-87
2022/03/20 10:14:07;;;;;;;9.43;3.95;;;;;;;;;;5036149;28;20172;-89
2022/03/20 10:16:34;;;;;;;12.43;6.35;;;;;;;;;;5044540;28;20042;-89
2022/03/20 10:19:00;;;;;;;17.40;8.85;;;;;;;;;;5049670;28;20037;-89
2022/03/20 10:21:46;;;;;;;13.77;6.60;;;;;;;;;;5022583;28;20041;-89
2022/03/20 10:24:31;;;;;;;15.77;8.05;;;;;;;;;;5014024;28;20111;-90
2022/03/20 10:27:00;;;;;;;15.05;5.95;;;;;;;;;;5009049;28;20041;-89
2022/03/20 10:29:26;;;;;;;18.25;8.80;;;;;;;;;;5007761;28;20045;-90
2022/03/20 10:31:54;;;;;;;18.67;9.65;;;;;;;;;;5027476;28;20514;-90
2022/03/20 10:34:20;;;;;;;21.17;8.98;;;;;;;;;;5015540;28;20542;-89
2022/03/20 10:36:49;;;;;;;13.27;7.15;;;;;;;;;;5032232;28;20042;-90
2022/03/20 10:39:17;;;;;;;12.77;6.97;;;;;;;;;;5008314;28;20483;-89
2022/03/20 10:41:47;;;;;;;12.18;7.22;;;;;;;;;;5021260;28;20041;-89
2022/03/20 10:44:38;;;;;;;15.18;7.90;;;;;;;;;;5005591;28;20045;-89
2022/03/20 10:47:12;;;;;;;21.02;7.80;;;;;;;;;;5022313;28;20082;-89
2022/03/20 10:49:43;;;;;;;17.40;8.40;;;;;;;;;;5024845;28;20038;-94
2022/03/20 10:52:10;;;;;;;13.48;7.75;;;;;;;;;;5012237;28;20099;-88
2022/03/20 10:54:59;;;;;;;10.32;6.50;;;;;;;;;;5011324;28;20041;-88
2022/03/20 10:57:33;;;;;;;16.45;7.93;;;;;;;;;;5017705;28;20105;-90
2022/03/20 11:00:00;;;;;;;21.83;6.88;;;;;;;;;;5007879;28;20388;-90
2022/03/20 11:02:27;;;;;;;11.32;5.70;;;;;;;;;;5015904;28;20041;-90
2022/03/20 11:04:53;;;;;;;18.17;9.18;;;;;;;;;;5008546;28;20041;-90
2022/03/20 11:07:23;;;;;;;31.00;9.65;;;;;;;;;;5014277;28;20071;-90
2022/03/20 11:09:50;;;;;;;11.32;6.60;;;;;;;;;;4996517;28;20100;-90
2022/03/20 11:12:24;;;;;;;15.48;8.32;;;;;;;;;;5036132;28;20049;-90
2022/03/20 11:14:50;;;;;;;24.13;11.20;;;;;;;;;;5014478;28;20041;-90
2022/03/20 11:17:19;;;;;;;2.83;1.63;;;;;;;;;;5010563;28;20077;-90
2022/03/20 11:19:53;;;;;;;13.95;6.95;;;;;;;;;;5016630;28;20041;-90
2022/03/20 11:22:21;;;;;;;17.02;7.97;;;;;;;;;;5012367;28;20109;-91
2022/03/20 11:25:03;;;;;;;18.58;9.35;;;;;;;;;;5010345;28;20042;-90
2022/03/20 11:27:30;;;;;;;15.77;8.10;;;;;;;;;;5051791;28;20497;-91
2022/03/20 11:30:06;;;;;;;7.00;3.72;;;;;;;;;;5015919;28;20041;-91
2022/03/20 11:32:33;;;;;;;6.20;3.35;;;;;;;;;;5015437;28;20037;-91
2022/03/20 11:34:59;;;;;;;25.77;6.70;;;;;;;;;;5001278;28;20097;-91
2022/03/20 11:37:41;;;;;;;7.63;4.20;;;;;;;;;;5008739;28;20076;-90
2022/03/20 11:40:12;;;;;;;5.93;3.77;;;;;;;;;;5026573;28;20041;-92
2022/03/20 11:42:40;;;;;;;11.93;5.97;;;;;;;;;;5017459;28;20295;-93
2022/03/20 11:45:06;;;;;;;13.23;4.22;;;;;;;;;;5011808;28;20047;-92
2022/03/20 11:47:33;;;;;;;13.43;7.18;;;;;;;;;;5013976;28;20037;-93
2022/03/20 11:50:09;;;;;;;11.27;3.75;;;;;;;;;;5013600;28;20101;-90
2022/03/20 11:52:55;;;;;;;10.43;5.90;;;;;;;;;;5041638;28;20048;-92
2022/03/20 11:55:24;;;;;;;13.88;6.85;;;;;;;;;;5016890;28;20033;-91
2022/03/20 11:57:51;;;;;;;15.30;6.57;;;;;;;;;;5025983;28;20062;-93
2022/03/20 12:00:19;;;;;;;8.70;5.75;;;;;;;;;;5031761;28;20061;-92
2022/03/20 12:02:46;;;;;;;15.82;8.82;;;;;;;;;;5020896;28;20048;-92
2022/03/20 12:08:55;;;;;;;20.75;9.15;;;;;;;;;;5052507;28;20037;-93
2022/03/20 12:11:40;;;;;;;9.75;5.10;;;;;;;;;;5024377;28;20041;-92
2022/03/20 12:14:28;;;;;;;11.98;6.50;;;;;;;;;;5017346;28;20045;-92
2022/03/20 12:16:55;;;;;;;15.90;8.02;;;;;;;;;;5018061;28;20048;-92
2022/03/20 12:19:26;;;;;;;15.93;6.18;;;;;;;;;;5013497;28;20036;-92
2022/03/20 12:21:53;;;;;;;9.80;5.15;;;;;;;;;;5014219;28;20042;-92
2022/03/20 12:24:37;;;;;;;13.43;5.93;;;;;;;;;;5007192;28;20048;-92
2022/03/20 12:27:22;;;;;;;16.38;8.63;;;;;;;;;;4993022;28;20411;-92
2022/03/20 12:29:55;;;;;;;11.82;6.75;;;;;;;;;;4992538;28;20046;-92
2022/03/20 12:32:22;;;;;;;5.72;3.85;;;;;;;;;;5000090;28;20056;-91
2022/03/20 12:35:06;;;;;;;8.75;5.28;;;;;;;;;;4997814;28;20070;-92
2022/03/20 12:37:37;;;;;;;10.93;6.33;;;;;;;;;;4992663;28;20049;-90
2022/03/20 12:40:08;;;;;;;11.63;5.68;;;;;;;;;;5010636;28;20044;-88
2022/03/20 12:42:36;;;;;;;16.25;8.35;;;;;;;;;;5000617;28;20044;-91
2022/03/20 12:45:03;;;;;;;15.02;8.60;;;;;;;;;;5004507;28;20053;-90
2022/03/20 12:47:37;;;;;;;18.45;8.18;;;;;;;;;;5002998;28;20101;-91
2022/03/20 12:50:12;;;;;;;15.75;8.45;;;;;;;;;;5003667;28;20105;-91
2022/03/20 12:52:44;;;;;;;5.65;3.97;;;;;;;;;;4996973;28;20052;-91
2022/03/20 12:55:11;;;;;;;8.10;4.50;;;;;;;;;;5009910;28;20041;-92
2022/03/20 12:57:56;;;;;;;10.77;6.22;;;;;;;;;;5015628;28;20038;-92
2022/03/20 13:00:44;;;;;;;13.30;6.78;;;;;;;;;;5018770;28;20068;-91
2022/03/20 13:03:18;;;;;;;8.60;4.07;;;;;;;;;;5008305;28;20038;-91
2022/03/20 13:05:57;;;;;;;7.20;4.15;;;;;;;;;;4999597;28;20482;-91
2022/03/20 13:08:45;;;;;;;9.32;4.57;;;;;;;;;;5007825;28;20103;-90
2022/03/20 13:14:12;;;;;;;5.30;2.40;;;;;;;;;;5016873;28;20046;-91
2022/03/20 13:16:50;;;;;;;4.55;2.38;;;;;;;;;;4998760;28;20467;-93
2022/03/20 13:19:28;;;;;;;6.43;3.75;;;;;;;;;;4995078;28;20060;-91
2022/03/20 13:21:55;;;;;;;11.75;5.28;;;;;;;;;;5008289;28;20043;-91
2022/03/20 13:24:29;;;;;;;9.27;4.88;;;;;;;;;;5043074;28;20137;-92
2022/03/20 13:26:59;;;;;;;12.10;6.25;;;;;;;;;;5035443;28;20083;-91
2022/03/20 13:29:30;;;;;;;16.02;8.48;;;;;;;;;;5015994;28;20041;-93
2022/03/20 13:32:00;;;;;;;16.85;8.05;;;;;;;;;;5025695;28;20037;-92
2022/03/20 13:34:26;;;;;;;10.55;5.90;;;;;;;;;;5009496;28;20059;-91
2022/03/20 13:36:52;;;;;;;9.82;4.68;;;;;;;;;;5013523;28;20053;-91
2022/03/20 13:39:21;;;;;;;5.70;4.68;;;;;;;;;;5015929;28;20037;-91
2022/03/20 13:41:50;;;;;;;5.40;1.05;;;;;;;;;;5012387;28;20037;-91
2022/03/20 13:44:16;;;;;;;10.35;4.32;;;;;;;;;;5019133;28;20040;-91
2022/03/20 13:46:48;;;;;;;4.63;2.75;;;;;;;;;;5034663;28;20033;-92
2022/03/20 13:49:16;;;;;;;6.60;3.40;;;;;;;;;;5015255;28;20036;-92
2022/03/20 13:51:46;;;;;;;16.90;7.88;;;;;;;;;;5015896;28;20046;-91
2022/03/20 13:54:20;;;;;;;13.63;7.40;;;;;;;;;;5018887;28;20050;-91
2022/03/20 13:56:50;;;;;;;6.18;4.25;;;;;;;;;;5016407;28;20041;-91
2022/03/20 13:59:24;;;;;;;9.52;4.63;;;;;;;;;;5019709;28;20095;-91
2022/03/20 14:01:51;;;;;;;3.13;2.22;;;;;;;;;;5025175;28;20036;-91
2022/03/20 14:04:18;;;;;;;10.95;5.82;;;;;;;;;;5019281;28;20033;-91
2022/03/20 14:06:54;;;;;;;6.20;3.70;;;;;;;;;;5018253;28;20064;-90
2022/03/20 14:09:30;;;;;;;8.05;4.43;;;;;;;;;;5024383;28;20088;-90
2022/03/20 14:11:56;;;;;;;10.88;5.70;;;;;;;;;;5010799;28;20053;-92
2022/03/20 14:14:40;;;;;;;7.47;2.63;;;;;;;;;;5017463;28;20087;-93
2022/03/20 14:17:09;;;;;;;7.32;2.50;;;;;;;;;;5023148;28;20044;-91
2022/03/20 14:19:47;;;;;;;4.15;2.58;;;;;;;;;;5002377;28;20540;-90
2022/03/20 14:22:13;;;;;;;9.30;2.70;;;;;;;;;;5024989;28;20442;-90
2022/03/20 14:24:57;;;;;;;3.95;2.58;;;;;;;;;;5010661;28;20045;-91
2022/03/20 14:27:30;;;;;;;1.23;1.13;;;;;;;;;;5027712;28;20045;-91
2022/03/20 14:41:27;;;;;;;1.80;1.55;;;;;;;;;;5033091;28;20045;-91
2022/03/20 14:44:07;;;;;;;1.23;1.10;;;;;;;;;;5022350;28;20060;-91
2022/03/20 14:46:34;;;;;;;0.28;0.28;;;;;;;;;;5011193;28;20049;-92
2022/03/20 14:49:03;;;;;;;5.95;3.03;;;;;;;;;;5024657;28;20052;-91
2022/03/20 14:51:32;;;;;;;1.00;0.95;;;;;;;;;;4999644;28;20041;-91
2022/03/20 14:53:59;;;;;;;0.60;0.60;;;;;;;;;;5015515;28;20048;-91
2022/03/20 14:56:26;;;;;;;12.63;6.60;;;;;;;;;;5016817;28;20052;-95
2022/03/20 14:58:54;;;;;;;3.03;0.93;;;;;;;;;;5012859;28;20049;-93
2022/03/20 15:01:23;;;;;;;0.40;0.40;;;;;;;;;;5019666;28;20049;-92
2022/03/20 15:04:00;;;;;;;4.85;3.22;;;;;;;;;;5041449;28;20111;-92
2022/03/20 15:06:28;;;;;;;3.63;2.22;;;;;;;;;;5021694;28;20041;-91
2022/03/20 15:11:40;;;;;;;11.90;5.97;;;;;;;;;;5038736;28;20046;-93
2022/03/20 15:14:06;;;;;;;7.57;2.90;;;;;;;;;;5008322;28;20062;-91
2022/03/20 15:16:33;;;;;;;12.05;6.80;;;;;;;;;;5016666;28;20053;-93
2022/03/20 15:18:59;;;;;;;4.28;2.78;;;;;;;;;;5040308;28;20030;-92
2022/03/20 15:21:29;;;;;;;12.15;6.43;;;;;;;;;;5018210;28;20093;-95
2022/03/20 15:23:55;;;;;;;12.50;5.30;;;;;;;;;;5041457;28;20049;-96
2022/03/20 15:26:23;;;;;;;12.85;7.55;;;;;;;;;;5026632;28;20053;-94
2022/03/20 15:28:50;;;;;;;23.85;14.55;;;;;;;;;;5037078;28;20075;-96
2022/03/20 15:31:16;;;;;;;5.35;2.20;;;;;;;;;;5070407;28;20045;-95
2022/03/20 15:33:43;;;;;;;7.60;3.17;;;;;;;;;;5041326;28;20034;-94
2022/03/20 15:36:09;;;;;;;8.25;4.68;;;;;;;;;;5077799;28;20040;-94
2022/03/20 15:38:37;;;;;;;18.98;9.00;;;;;;;;;;5037305;28;20097;-94
2022/03/20 15:41:09;;;;;;;9.93;5.10;;;;;;;;;;5071372;28;20120;-93